Phoenix, AZ (85017)

9:55 PM MST on August 01, 2015 (GMT -0700)
Phoenix S of Christown | | Change Station
CLOSE
Current Station
Personal Weather Station
Location: Phoenix, AZ
Elevation: 1152 ft
Nearby Weather Stations

Elev 1152 ft 33.51 °N, 112.10 °W | Updated 13 minutes ago

Clear
Clear
96.2 °F
Feels Like 97 °F
N
2.0
Wind Variable Wind from NW
Gusts 3.0 mph

Today
High -- | Low -- °F
--% Chance of Precip.
Yesterday
High -- | Low -- °F
Precip. -- in
5:40 AM 7:28 PM
Waning Gibbous, 96% visible
Pressure 29.72 in
Visibility 10.0 miles
Clouds Few 10000 ft
Few 15000 ft
Scattered Clouds 25000 ft
Heat Index 97 °F
Dew Point 61 °F
Humidity 31%
Rainfall 0.00 in
Snow Depth Not available.
UV 0 out of 12
Pollen 3.90 out of 12
Air Quality Not available.
Flu Activity Not available.
METAR KPHX 020451Z 23004KT 10SM FEW100 FEW150 SCT250 34/18 A2978 RMK AO2 SLP063 OCNL LTGIC DSNT E CB DSNT E T03440183

More Conditions Fewer Conditions

Pressure 29.72 in
Visibility 10.0 miles
Clouds Few 10000 ft
Few 15000 ft
Scattered Clouds 25000 ft
Heat Index 97 °F
Dew Point 61 °F
Humidity 31%
Rainfall 0.00 in
Snow Depth Not available.
UV 0 out of 12
Pollen 3.90 out of 12
Air Quality Not available.
Flu Activity Not available.
METAR KPHX 020451Z 23004KT 10SM FEW100 FEW150 SCT250 34/18 A2978 RMK AO2 SLP063 OCNL LTGIC DSNT E CB DSNT E T03440183

More Conditions Fewer Conditions

10-Day Weather Forecast

×

Almanac

Astronomy

Aug. 01, 2015 Rise Set
Actual Time
Civil Twilight
Nautical Twilight
Astronomical Twilight
Moon
Length of Visible Light
Length of Day
Tomorrow will be .
, % of the Moon is Illuminated

Today's Extremes

State Highs State Lows

Community

WunderPhotos

Upload Photos

1,843,189 photos uploaded!

WunderBlogs® & News

Nearby

Air Quality

  Air Quality AQ Index Pollutant
Not available.

Snow Depth

Station Depth Elevation

Earthquake Activity

City Distance Mag. Time & Date
Minimum magnitude displayed is 2.5.

Coastal Water Temperatures

Place Temperature

Stations

Nearby Weather Stations

Station Location Temp. Windchill Dew Point Humidity Wind Precip. Elev Updated Type